Time;durP1;ratioP1;P1;durP2;ratioP2;P2;SDS_P1;SDS_P2;PMS_P1;PMS_P2;Temp;Humidity;BMP_temperature;BMP_pressure;BME280_temperature;BME280_humidity;BME280_pressure;Samples;Min_cycle;Max_cycle;Signal;HPM_P1;HPM_P2
2023/07/22 00:02:03;;;;;;;5.10;4.18;;;15.90;99.90;;;;;;5020753;28;20548;-71
2023/07/22 00:04:28;;;;;;;4.50;4.10;;;16.00;99.90;;;;;;5024165;28;20224;-69
2023/07/22 00:06:54;;;;;;;5.25;4.07;;;16.00;99.90;;;;;;5021214;28;20735;-71
2023/07/22 00:09:20;;;;;;;4.32;3.67;;;16.10;99.90;;;;;;5010367;28;20295;-72
2023/07/22 00:11:45;;;;;;;4.07;3.50;;;16.10;99.90;;;;;;5009627;28;20220;-72
2023/07/22 00:14:11;;;;;;;4.22;3.83;;;16.10;99.90;;;;;;5016707;28;20198;-72
2023/07/22 00:16:37;;;;;;;4.75;4.25;;;16.10;99.90;;;;;;5013231;28;20647;-70
2023/07/22 00:19:03;;;;;;;4.05;3.65;;;16.10;99.90;;;;;;5011521;28;20699;-71
2023/07/22 00:21:29;;;;;;;4.63;3.50;;;16.20;99.90;;;;;;5015534;28;20239;-72
2023/07/22 00:23:54;;;;;;;5.20;4.70;;;16.20;99.90;;;;;;5012357;28;20221;-70
2023/07/22 00:26:20;;;;;;;4.55;4.13;;;16.20;99.90;;;;;;5017040;28;20220;-72
2023/07/22 00:28:46;;;;;;;7.88;4.18;;;16.20;99.90;;;;;;5017064;28;20243;-72
2023/07/22 00:31:11;;;;;;;4.43;4.03;;;16.20;99.90;;;;;;5020098;28;20343;-72
2023/07/22 00:33:37;;;;;;;5.00;4.05;;;16.30;99.90;;;;;;5012034;28;20220;-72
2023/07/22 00:36:03;;;;;;;5.00;3.97;;;16.20;99.90;;;;;;5019672;28;20212;-72
2023/07/22 00:38:28;;;;;;;4.68;4.10;;;16.30;99.90;;;;;;5017043;28;20282;-71
2023/07/22 00:40:54;;;;;;;4.80;4.30;;;16.40;99.90;;;;;;5019210;28;20181;-71
2023/07/22 00:43:19;;;;;;;3.97;3.53;;;16.40;99.90;;;;;;5018989;28;20200;-72
2023/07/22 00:45:45;;;;;;;4.25;3.85;;;16.30;99.90;;;;;;5008125;28;20200;-72
2023/07/22 00:48:13;;;;;;;4.57;4.13;;;16.30;99.90;;;;;;5010304;28;20702;-71
2023/07/22 00:50:39;;;;;;;4.88;3.78;;;16.30;99.90;;;;;;5011915;28;20240;-71
2023/07/22 00:53:04;;;;;;;4.63;3.78;;;16.30;99.90;;;;;;5014170;28;20189;-71
2023/07/22 00:55:33;;;;;;;4.40;3.97;;;16.40;99.90;;;;;;5015227;28;20193;-73
2023/07/22 00:57:59;;;;;;;4.45;4.05;;;16.30;99.90;;;;;;5011381;28;20209;-72
2023/07/22 01:00:25;;;;;;;6.30;3.88;;;16.30;99.90;;;;;;5015506;28;20563;-72
2023/07/22 01:02:50;;;;;;;4.32;3.83;;;16.30;99.90;;;;;;5012297;28;20221;-70
2023/07/22 01:05:16;;;;;;;4.90;4.20;;;16.40;99.90;;;;;;5017882;28;20695;-72
2023/07/22 01:07:42;;;;;;;4.85;3.88;;;16.30;99.90;;;;;;5014158;28;20616;-72
2023/07/22 01:10:08;;;;;;;4.45;4.03;;;16.30;99.90;;;;;;5018450;28;20215;-72
2023/07/22 01:12:34;;;;;;;7.63;3.90;;;16.30;99.90;;;;;;5013148;28;20216;-70
2023/07/22 01:15:00;;;;;;;5.25;4.38;;;16.30;99.90;;;;;;5018719;28;20216;-72
2023/07/22 01:17:26;;;;;;;5.57;4.05;;;16.30;99.90;;;;;;5016234;28;20587;-72
2023/07/22 01:19:52;;;;;;;5.32;4.30;;;16.30;99.90;;;;;;5019394;28;20196;-71
2023/07/22 01:22:19;;;;;;;4.72;4.22;;;16.30;99.90;;;;;;5009217;28;20218;-72
2023/07/22 01:24:46;;;;;;;5.75;4.45;;;16.20;99.90;;;;;;5010165;28;20289;-72
2023/07/22 01:27:13;;;;;;;6.82;4.50;;;16.30;99.90;;;;;;5010380;28;20233;-72
2023/07/22 01:29:38;;;;;;;5.32;4.30;;;16.40;99.90;;;;;;5012386;28;20586;-72
2023/07/22 01:32:05;;;;;;;4.50;4.15;;;16.30;99.90;;;;;;5010783;28;20181;-72
2023/07/22 01:34:31;;;;;;;5.32;4.75;;;16.30;99.90;;;;;;5014033;28;20712;-72
2023/07/22 01:36:57;;;;;;;4.45;4.05;;;16.30;99.90;;;;;;5015253;28;20221;-71
2023/07/22 01:39:23;;;;;;;5.30;4.80;;;16.30;99.90;;;;;;5016316;28;20209;-70
2023/07/22 01:41:48;;;;;;;5.15;4.65;;;16.30;99.90;;;;;;5008045;28;20584;-72
2023/07/22 01:44:14;;;;;;;7.30;4.50;;;16.40;99.90;;;;;;5010283;28;20231;-72
2023/07/22 01:46:41;;;;;;;6.15;4.95;;;16.40;99.90;;;;;;5011612;28;20184;-70
2023/07/22 01:49:09;;;;;;;4.95;4.35;;;16.40;99.90;;;;;;5017810;28;21004;-71
2023/07/22 01:51:37;;;;;;;5.40;4.72;;;16.40;99.90;;;;;;5016207;28;20639;-72
2023/07/22 01:54:03;;;;;;;6.18;4.85;;;16.40;99.90;;;;;;5017377;28;20212;-71
2023/07/22 01:56:29;;;;;;;5.63;5.13;;;16.40;99.90;;;;;;5017815;28;20212;-72
2023/07/22 01:58:55;;;;;;;5.30;4.63;;;16.40;99.90;;;;;;5007060;28;20188;-70
2023/07/22 02:01:20;;;;;;;5.45;4.38;;;16.30;99.90;;;;;;5014641;28;20173;-71
2023/07/22 02:03:46;;;;;;;6.43;4.70;;;16.20;99.90;;;;;;5009970;28;20224;-70
2023/07/22 02:06:12;;;;;;;7.30;4.53;;;16.20;99.90;;;;;;5013002;28;20244;-71
2023/07/22 02:08:38;;;;;;;5.60;4.35;;;16.20;99.90;;;;;;5013669;28;20255;-72
2023/07/22 02:11:06;;;;;;;5.55;4.28;;;16.10;99.90;;;;;;5009544;28;20235;-72
2023/07/22 02:13:34;;;;;;;6.15;4.68;;;16.00;99.90;;;;;;5017340;28;20647;-71
2023/07/22 02:16:00;;;;;;;5.25;4.75;;;16.00;99.90;;;;;;5013351;28;20228;-72
2023/07/22 02:18:27;;;;;;;7.60;4.18;;;16.00;99.90;;;;;;5016582;28;20232;-70
2023/07/22 02:20:53;;;;;;;6.22;3.97;;;16.00;99.90;;;;;;5012204;28;20735;-71
2023/07/22 02:23:19;;;;;;;6.60;4.43;;;15.90;99.90;;;;;;5017532;28;20224;-72
2023/07/22 02:25:49;;;;;;;4.55;4.05;;;16.00;99.90;;;;;;5012091;28;20181;-71
2023/07/22 02:28:15;;;;;;;5.85;4.55;;;15.90;99.90;;;;;;5010060;28;20204;-70
2023/07/22 02:30:41;;;;;;;5.07;4.03;;;15.90;99.90;;;;;;5010698;28;20695;-72
2023/07/22 02:33:08;;;;;;;4.45;4.00;;;15.90;99.90;;;;;;5007007;28;20278;-72
2023/07/22 02:35:34;;;;;;;4.10;3.80;;;15.90;99.90;;;;;;5008655;28;20582;-71
2023/07/22 02:37:59;;;;;;;5.50;3.70;;;15.80;99.90;;;;;;5005572;28;20196;-72
2023/07/22 02:40:25;;;;;;;5.18;3.85;;;15.80;99.90;;;;;;5017831;28;20767;-72
2023/07/22 02:42:51;;;;;;;6.53;3.50;;;15.80;99.90;;;;;;5019179;28;20600;-70
2023/07/22 02:45:16;;;;;;;5.45;4.07;;;15.80;99.90;;;;;;5021367;28;20287;-72
2023/07/22 02:47:42;;;;;;;8.48;4.35;;;15.80;99.90;;;;;;5022047;28;20602;-72
2023/07/22 02:50:08;;;;;;;4.85;3.63;;;15.70;99.90;;;;;;5020361;28;20185;-72
2023/07/22 02:52:34;;;;;;;5.70;3.70;;;15.60;99.90;;;;;;5022968;28;20178;-72
2023/07/22 02:55:12;;;;;;;7.35;4.28;;;15.70;99.90;;;;;;5019990;28;20300;-72
2023/07/22 02:57:38;;;;;;;4.65;4.18;;;15.60;99.90;;;;;;5020900;28;20231;-70
2023/07/22 03:00:08;;;;;;;4.10;3.70;;;15.60;99.90;;;;;;5020054;28;20520;-72
2023/07/22 03:02:38;;;;;;;3.80;3.50;;;15.50;99.90;;;;;;5019490;28;20222;-70
2023/07/22 03:05:07;;;;;;;5.03;4.10;;;15.50;99.90;;;;;;5020103;28;20243;-72
2023/07/22 03:07:34;;;;;;;4.50;3.95;;;15.50;99.90;;;;;;5021639;28;20188;-72
2023/07/22 03:10:00;;;;;;;4.93;3.25;;;15.50;99.90;;;;;;5019061;28;20212;-72
2023/07/22 03:12:27;;;;;;;3.72;3.40;;;15.40;99.90;;;;;;5021018;28;20215;-73
2023/07/22 03:14:53;;;;;;;4.40;3.90;;;15.50;99.90;;;;;;5021370;28;20220;-70
2023/07/22 03:17:19;;;;;;;4.07;3.67;;;15.50;99.90;;;;;;5018880;28;20216;-69
2023/07/22 03:19:45;;;;;;;6.82;4.00;;;15.50;99.90;;;;;;5019568;28;20172;-71
2023/07/22 03:22:14;;;;;;;4.53;3.50;;;15.40;99.90;;;;;;5012844;28;20396;-72
2023/07/22 03:24:39;;;;;;;7.15;3.65;;;15.50;99.90;;;;;;5018009;28;20784;-72
2023/07/22 03:27:06;;;;;;;5.65;3.95;;;15.40;99.90;;;;;;5019147;28;20232;-72
2023/07/22 03:29:32;;;;;;;4.22;3.83;;;15.30;99.90;;;;;;5022576;28;20240;-72
2023/07/22 03:31:59;;;;;;;5.95;4.35;;;15.40;99.90;;;;;;5016330;28;20204;-71
2023/07/22 03:34:26;;;;;;;4.43;4.03;;;15.40;99.90;;;;;;5015848;28;20204;-72
2023/07/22 03:36:52;;;;;;;4.13;3.72;;;15.50;99.90;;;;;;5018364;28;20205;-70
2023/07/22 03:39:17;;;;;;;5.68;3.95;;;15.40;99.90;;;;;;5021364;28;20212;-69
2023/07/22 03:41:43;;;;;;;4.40;4.05;;;15.50;99.90;;;;;;5019751;28;20695;-72
2023/07/22 03:44:09;;;;;;;6.93;3.63;;;15.60;99.90;;;;;;5020274;28;20703;-73
2023/07/22 03:46:34;;;;;;;6.18;4.03;;;15.70;99.90;;;;;;5020822;28;20203;-73
2023/07/22 03:49:00;;;;;;;3.97;3.47;;;15.90;99.90;;;;;;5018604;28;20205;-72
2023/07/22 03:51:26;;;;;;;3.72;3.42;;;16.30;99.90;;;;;;5020128;28;20604;-71
2023/07/22 03:53:51;;;;;;;4.95;3.67;;;16.30;99.90;;;;;;5020329;28;20224;-69
2023/07/22 03:56:17;;;;;;;4.65;3.13;;;16.60;99.90;;;;;;5019363;28;20217;-73
2023/07/22 03:58:43;;;;;;;4.10;3.25;;;17.40;99.90;;;;;;5021198;28;20192;-73
2023/07/22 04:01:11;;;;;;;4.38;3.25;;;17.90;99.90;;;;;;5012719;28;20228;-71
2023/07/22 04:03:37;;;;;;;6.28;3.17;;;18.20;99.90;;;;;;5016631;28;20224;-72
2023/07/22 04:06:03;;;;;;;3.60;3.03;;;18.70;99.90;;;;;;5017356;28;20217;-73
2023/07/22 04:08:28;;;;;;;3.65;2.85;;;18.80;99.90;;;;;;5019938;28;20214;-73
2023/07/22 04:10:58;;;;;;;4.22;3.13;;;19.00;99.90;;;;;;5018547;28;20181;-72
2023/07/22 04:13:25;;;;;;;3.92;3.03;;;19.30;99.90;;;;;;5021927;28;20195;-72
2023/07/22 04:15:51;;;;;;;3.42;2.85;;;18.70;99.90;;;;;;5017496;28;20585;-72
2023/07/22 04:18:18;;;;;;;11.20;8.38;;;18.50;99.90;;;;;;5020093;28;20212;-72
2023/07/22 04:20:44;;;;;;;10.63;7.70;;;19.10;99.90;;;;;;5018775;28;20274;-71
2023/07/22 04:23:10;;;;;;;8.70;5.47;;;20.00;99.90;;;;;;5017696;28;20247;-72
2023/07/22 04:25:43;;;;;;;4.03;3.10;;;20.80;99.90;;;;;;5020553;28;20691;-72
2023/07/22 04:28:09;;;;;;;4.20;3.45;;;21.60;99.90;;;;;;5017256;28;20936;-73
2023/07/22 04:30:39;;;;;;;4.85;3.33;;;22.40;99.90;;;;;;5016961;28;20216;-72
2023/07/22 04:33:05;;;;;;;5.30;3.35;;;23.30;99.90;;;;;;5017716;28;20231;-71
2023/07/22 04:35:40;;;;;;;4.25;2.97;;;24.00;99.90;;;;;;5019433;28;20243;-73
2023/07/22 04:38:06;;;;;;;3.85;2.92;;;24.30;99.90;;;;;;5017667;28;20177;-73
2023/07/22 04:40:32;;;;;;;6.18;3.75;;;24.80;99.90;;;;;;5016406;28;20188;-72
2023/07/22 04:42:57;;;;;;;2.88;2.47;;;25.20;99.90;;;;;;5017770;28;20288;-72
2023/07/22 04:45:24;;;;;;;3.45;2.40;;;25.50;99.90;;;;;;5028059;28;20300;-72
2023/07/22 04:47:50;;;;;;;2.78;2.53;;;25.90;99.90;;;;;;5016489;28;20212;-72
2023/07/22 04:50:17;;;;;;;3.75;2.17;;;26.00;99.90;;;;;;5015518;28;20221;-73
2023/07/22 04:52:47;;;;;;;2.40;2.20;;;26.00;99.90;;;;;;5018749;28;20196;-72
2023/07/22 04:55:13;;;;;;;2.38;2.17;;;26.40;99.90;;;;;;5017038;28;20201;-71
2023/07/22 04:57:44;;;;;;;2.80;2.20;;;26.70;99.90;;;;;;5019196;28;20259;-72
2023/07/22 05:00:16;;;;;;;2.78;2.40;;;26.70;99.90;;;;;;5019007;28;20205;-72
2023/07/22 05:02:43;;;;;;;2.88;2.30;;;26.60;99.90;;;;;;5009879;28;20208;-73
2023/07/22 05:05:09;;;;;;;3.13;2.33;;;26.30;99.90;;;;;;5009917;28;20216;-74
2023/07/22 05:07:35;;;;;;;4.07;3.00;;;26.40;99.90;;;;;;5011405;28;20166;-73
2023/07/22 05:10:01;;;;;;;3.85;2.92;;;26.70;99.90;;;;;;5013097;28;20558;-74
2023/07/22 05:12:27;;;;;;;4.30;2.40;;;26.90;99.90;;;;;;5010862;28;20698;-73
2023/07/22 05:14:52;;;;;;;3.28;2.72;;;27.60;99.90;;;;;;5015013;28;20625;-72
2023/07/22 05:17:18;;;;;;;3.00;2.65;;;27.80;99.90;;;;;;5013105;28;20205;-73
2023/07/22 05:19:43;;;;;;;5.07;3.13;;;27.90;99.90;;;;;;5016855;28;20227;-72
2023/07/22 05:22:09;;;;;;;5.57;3.05;;;27.50;99.90;;;;;;5014106;28;20300;-73
2023/07/22 05:24:35;;;;;;;3.95;2.90;;;28.30;99.90;;;;;;5017562;28;20220;-72
2023/07/22 05:27:00;;;;;;;5.22;2.72;;;28.30;99.90;;;;;;5014655;28;20220;-71
2023/07/22 05:29:26;;;;;;;3.60;3.10;;;28.10;99.90;;;;;;5016517;28;20230;-72
2023/07/22 05:31:51;;;;;;;4.10;3.28;;;27.60;99.90;;;;;;5018556;28;20173;-70
2023/07/22 05:34:17;;;;;;;3.83;2.97;;;27.10;99.90;;;;;;5023538;28;20217;-72
2023/07/22 05:36:43;;;;;;;4.40;3.65;;;27.40;99.90;;;;;;5018026;28;20248;-70
2023/07/22 05:39:08;;;;;;;4.57;3.63;;;27.70;99.90;;;;;;5011374;28;20223;-71
2023/07/22 05:41:34;;;;;;;4.65;3.45;;;27.50;99.90;;;;;;5007931;28;20209;-70
2023/07/22 05:44:00;;;;;;;5.72;3.72;;;25.90;99.90;;;;;;5012234;28;20216;-71
2023/07/22 05:46:25;;;;;;;6.18;4.05;;;25.90;99.90;;;;;;5008249;28;20177;-72
2023/07/22 05:48:51;;;;;;;5.95;4.43;;;24.70;99.90;;;;;;5014562;28;20219;-71
2023/07/22 05:51:18;;;;;;;5.00;4.03;;;24.30;99.90;;;;;;5008812;28;20221;-72
2023/07/22 05:53:43;;;;;;;6.30;5.00;;;24.40;99.90;;;;;;5015109;28;20208;-73
2023/07/22 05:56:09;;;;;;;9.93;4.57;;;24.90;99.90;;;;;;5011599;28;20191;-73
2023/07/22 05:58:35;;;;;;;4.97;4.18;;;24.80;99.90;;;;;;5015385;28;20254;-72
2023/07/22 06:01:01;;;;;;;5.93;4.68;;;25.50;99.90;;;;;;5013078;28;20201;-72
2023/07/22 06:03:26;;;;;;;6.30;4.63;;;26.00;99.90;;;;;;5012773;28;20686;-72
2023/07/22 06:05:52;;;;;;;6.85;4.78;;;26.20;99.90;;;;;;5016960;28;20200;-71
2023/07/22 06:08:18;;;;;;;6.35;4.22;;;26.40;99.90;;;;;;5015276;28;20215;-72
2023/07/22 06:10:44;;;;;;;4.88;3.67;;;27.40;99.90;;;;;;5018098;28;20551;-72
2023/07/22 06:13:09;;;;;;;5.50;3.95;;;27.90;99.90;;;;;;5016354;28;20201;-72
2023/07/22 06:15:35;;;;;;;5.38;4.40;;;28.10;99.90;;;;;;5011982;28;20205;-73
2023/07/22 06:18:01;;;;;;;5.78;4.30;;;27.10;99.90;;;;;;5010603;28;20212;-73
2023/07/22 06:20:28;;;;;;;7.18;4.60;;;27.00;99.90;;;;;;5005797;28;20248;-72
2023/07/22 06:22:54;;;;;;;6.43;4.47;;;26.40;99.90;;;;;;5009727;28;20560;-72
2023/07/22 06:25:20;;;;;;;6.35;4.03;;;26.80;99.90;;;;;;5011420;28;20213;-71
2023/07/22 06:27:46;;;;;;;7.00;4.25;;;26.80;99.90;;;;;;5018804;28;20204;-71
2023/07/22 06:30:12;;;;;;;6.75;4.30;;;27.50;99.90;;;;;;5005790;28;20211;-71
2023/07/22 06:32:38;;;;;;;6.40;4.47;;;27.20;99.90;;;;;;5014992;28;20221;-72
2023/07/22 06:35:05;;;;;;;5.68;4.25;;;27.00;99.90;;;;;;5012430;28;20289;-72
2023/07/22 06:37:30;;;;;;;7.60;4.22;;;26.70;99.90;;;;;;5014227;28;20178;-73
2023/07/22 06:39:56;;;;;;;4.63;4.03;;;27.80;99.90;;;;;;5009502;28;20246;-71
2023/07/22 06:42:22;;;;;;;6.07;4.00;;;29.20;99.90;;;;;;5022869;28;20300;-73
2023/07/22 06:44:48;;;;;;;6.30;4.38;;;29.10;99.90;;;;;;5038205;28;20220;-73
2023/07/22 06:47:14;;;;;;;5.00;3.25;;;29.70;99.90;;;;;;5029101;28;20224;-73
2023/07/22 06:49:41;;;;;;;6.47;3.75;;;29.20;99.90;;;;;;5021788;28;20192;-72
2023/07/22 06:52:07;;;;;;;5.57;3.70;;;28.50;99.90;;;;;;5014680;28;20232;-73
2023/07/22 06:54:32;;;;;;;8.10;3.65;;;28.90;99.90;;;;;;5010450;28;20244;-72
2023/07/22 06:56:58;;;;;;;8.60;3.92;;;29.40;99.90;;;;;;5011926;28;20232;-72
2023/07/22 06:59:24;;;;;;;5.13;4.05;;;30.10;99.90;;;;;;5007708;28;20224;-72
2023/07/22 07:01:49;;;;;;;6.47;3.58;;;30.60;99.90;;;;;;5013340;28;20176;-72
2023/07/22 07:04:15;;;;;;;5.20;3.50;;;30.80;98.90;;;;;;5011132;28;20227;-73
2023/07/22 07:06:40;;;;;;;4.72;3.03;;;30.90;97.90;;;;;;5011972;28;20225;-72
2023/07/22 07:09:06;;;;;;;5.40;3.05;;;30.50;96.90;;;;;;5018338;28;20209;-72
2023/07/22 07:11:32;;;;;;;5.00;2.97;;;30.30;96.50;;;;;;5014271;28;20230;-73
2023/07/22 07:13:58;;;;;;;4.18;2.90;;;31.10;96.00;;;;;;5017883;28;20276;-72
2023/07/22 07:16:26;;;;;;;6.13;3.15;;;30.50;95.30;;;;;;5012806;28;20699;-72
2023/07/22 07:18:52;;;;;;;4.88;2.90;;;31.00;94.40;;;;;;5013342;28;20213;-72
2023/07/22 07:21:22;;;;;;;6.07;3.00;;;30.10;94.80;;;;;;5015615;28;20209;-72
2023/07/22 07:23:48;;;;;;;4.28;2.88;;;29.20;96.10;;;;;;5016961;28;20798;-70
2023/07/22 07:26:14;;;;;;;5.18;3.22;;;28.40;97.80;;;;;;5014647;28;20615;-71
2023/07/22 07:28:41;;;;;;;6.13;3.67;;;27.60;99.60;;;;;;5008390;28;20660;-71
2023/07/22 07:31:07;;;;;;;6.20;3.83;;;28.10;99.40;;;;;;5015538;28;20212;-71
2023/07/22 07:33:33;;;;;;;8.77;3.88;;;27.80;99.40;;;;;;5009876;28;20235;-73
2023/07/22 07:35:59;;;;;;;7.40;3.75;;;27.10;99.80;;;;;;5009701;28;20227;-73
2023/07/22 07:38:25;;;;;;;6.32;3.50;;;27.20;99.90;;;;;;5011542;28;20224;-72
2023/07/22 07:40:56;;;;;;;4.18;3.13;;;27.00;99.90;;;;;;5014371;28;20614;-73
2023/07/22 07:43:22;;;;;;;5.10;3.35;;;27.90;99.90;;;;;;5016525;28;20227;-71
2023/07/22 07:45:48;;;;;;;7.22;3.25;;;28.70;97.90;;;;;;5015616;28;20208;-72
2023/07/22 07:48:13;;;;;;;8.55;3.28;;;28.50;98.00;;;;;;5020826;28;20207;-70
2023/07/22 07:50:39;;;;;;;5.28;3.42;;;28.80;97.80;;;;;;5019874;28;20245;-72
2023/07/22 07:53:11;;;;;;;4.82;3.28;;;28.40;97.10;;;;;;5016982;28;20200;-77
2023/07/22 07:55:36;;;;;;;6.75;3.20;;;28.90;97.20;;;;;;5017580;28;20201;-73
2023/07/22 07:58:02;;;;;;;4.40;3.05;;;29.80;96.40;;;;;;5012361;28;20211;-72
2023/07/22 08:00:27;;;;;;;3.97;3.15;;;30.30;94.30;;;;;;5008417;28;20201;-72
2023/07/22 08:02:53;;;;;;;6.80;3.22;;;30.00;94.00;;;;;;5013939;28;20232;-72
2023/07/22 08:05:19;;;;;;;6.80;3.70;;;28.50;94.40;;;;;;5015404;28;20223;-72
2023/07/22 08:07:44;;;;;;;5.13;3.40;;;27.20;97.00;;;;;;5012568;28;20182;-72
2023/07/22 08:10:10;;;;;;;5.45;3.80;;;26.90;98.00;;;;;;5015385;28;20208;-72
2023/07/22 08:12:37;;;;;;;4.13;3.38;;;27.30;97.80;;;;;;5009573;28;20366;-73
2023/07/22 08:15:03;;;;;;;7.13;3.30;;;27.60;97.30;;;;;;5008249;28;20211;-71
2023/07/22 08:17:29;;;;;;;6.82;3.60;;;27.30;97.50;;;;;;5010310;28;20684;-73
2023/07/22 08:19:54;;;;;;;3.97;3.55;;;27.00;98.30;;;;;;5017809;28;20205;-72
2023/07/22 08:22:20;;;;;;;5.70;4.07;;;26.70;99.10;;;;;;5012325;28;20184;-71
2023/07/22 08:24:46;;;;;;;4.63;3.70;;;26.90;99.20;;;;;;5020562;28;20231;-71
2023/07/22 08:27:11;;;;;;;4.97;3.67;;;27.20;98.80;;;;;;5017062;28;20201;-72
2023/07/22 08:29:37;;;;;;;6.38;3.97;;;27.50;98.90;;;;;;5016932;28;20226;-72
2023/07/22 08:32:03;;;;;;;6.28;3.90;;;27.60;98.30;;;;;;5021368;28;20203;-72
2023/07/22 08:34:29;;;;;;;6.55;4.13;;;27.20;98.80;;;;;;5017327;28;20703;-72
2023/07/22 08:36:54;;;;;;;5.80;3.83;;;26.40;99.50;;;;;;5024216;28;20358;-71
2023/07/22 08:39:20;;;;;;;6.05;4.05;;;26.60;99.20;;;;;;5017653;28;20209;-71
2023/07/22 08:41:50;;;;;;;10.23;4.43;;;27.00;99.30;;;;;;5006803;28;20240;-71
2023/07/22 08:44:20;;;;;;;7.80;3.85;;;26.40;99.90;;;;;;5003993;28;20317;-72
2023/07/22 08:46:47;;;;;;;6.55;4.65;;;25.00;99.90;;;;;;5005897;28;20549;-71
2023/07/22 08:49:15;;;;;;;8.23;4.43;;;24.30;99.90;;;;;;5010911;28;20216;-72
2023/07/22 08:51:40;;;;;;;9.02;4.32;;;24.40;99.90;;;;;;5004703;28;20216;-72
2023/07/22 08:54:08;;;;;;;7.22;3.95;;;25.00;99.90;;;;;;5014599;28;20224;-72
2023/07/22 08:56:34;;;;;;;5.88;4.00;;;25.70;99.90;;;;;;5007900;28;20209;-74
2023/07/22 08:59:01;;;;;;;7.10;4.65;;;25.60;99.90;;;;;;5009554;28;20251;-73
2023/07/22 09:01:27;;;;;;;8.20;3.97;;;26.00;99.90;;;;;;5013439;28;20193;-74
2023/07/22 09:03:54;;;;;;;6.25;3.55;;;27.10;99.90;;;;;;5010153;28;20228;-76
2023/07/22 09:06:20;;;;;;;6.97;3.83;;;27.60;99.90;;;;;;5014852;28;20216;-74
2023/07/22 09:08:46;;;;;;;7.10;4.57;;;28.00;99.50;;;;;;5016478;28;20213;-76
2023/07/22 09:11:12;;;;;;;12.43;8.18;;;28.00;98.00;;;;;;5011001;28;20189;-74
2023/07/22 09:13:40;;;;;;;6.38;3.65;;;28.40;98.20;;;;;;5017421;28;20184;-74
2023/07/22 09:16:06;;;;;;;5.93;3.50;;;28.70;97.40;;;;;;5012675;28;20288;-74
2023/07/22 09:18:35;;;;;;;4.75;3.40;;;29.00;96.00;;;;;;5010069;28;20201;-75
2023/07/22 09:21:00;;;;;;;6.18;3.70;;;28.20;96.10;;;;;;5009204;28;20220;-74
2023/07/22 09:23:46;;;;;;;5.15;4.00;;;27.80;97.00;;;;;;5007521;28;20303;-75
2023/07/22 09:26:14;;;;;;;5.70;3.70;;;27.10;97.40;;;;;;5008329;28;20770;-76
2023/07/22 09:28:54;;;;;;;4.93;3.38;;;26.30;98.60;;;;;;5006623;28;20183;-74
2023/07/22 09:31:25;;;;;;;3.85;2.75;;;25.60;99.80;;;;;;5013078;28;20971;-74
2023/07/22 09:33:53;;;;;;;5.50;3.72;;;25.90;99.80;;;;;;5015228;28;20216;-74
2023/07/22 09:36:19;;;;;;;3.95;3.30;;;26.40;99.90;;;;;;5011019;28;20240;-74
2023/07/22 09:38:45;;;;;;;6.15;3.08;;;26.30;99.20;;;;;;5013370;28;20707;-74
2023/07/22 09:41:11;;;;;;;5.05;3.05;;;26.20;98.70;;;;;;5012240;28;20177;-73
2023/07/22 09:43:38;;;;;;;5.00;3.10;;;26.10;99.40;;;;;;5019514;28;20267;-73
2023/07/22 09:46:08;;;;;;;3.95;2.92;;;25.90;99.90;;;;;;5013297;28;20205;-74
2023/07/22 09:48:41;;;;;;;3.65;2.83;;;25.90;99.90;;;;;;5014451;28;20781;-73
2023/07/22 09:51:13;;;;;;;5.93;3.53;;;25.90;99.80;;;;;;5007409;28;20212;-76
2023/07/22 09:53:43;;;;;;;5.38;3.53;;;25.90;99.90;;;;;;5002303;28;20236;-75
2023/07/22 09:56:09;;;;;;;3.78;3.30;;;26.00;99.70;;;;;;5007396;28;20177;-76
2023/07/22 09:58:35;;;;;;;3.92;3.05;;;25.40;99.90;;;;;;5007049;28;20199;-75
2023/07/22 10:01:01;;;;;;;5.28;2.95;;;25.10;99.90;;;;;;5005319;28;20224;-74
2023/07/22 10:03:30;;;;;;;3.60;2.97;;;24.70;99.90;;;;;;5005516;28;20217;-74
2023/07/22 10:05:59;;;;;;;3.90;2.80;;;24.50;99.90;;;;;;5007024;28;20236;-74
2023/07/22 10:08:29;;;;;;;6.00;3.10;;;24.30;99.90;;;;;;5010190;28;20224;-73
2023/07/22 10:10:57;;;;;;;3.25;2.90;;;24.30;99.90;;;;;;5010384;28;20169;-74
2023/07/22 10:13:24;;;;;;;3.95;3.05;;;24.40;99.90;;;;;;5002915;28;20666;-72
2023/07/22 10:15:50;;;;;;;5.63;2.90;;;24.60;99.90;;;;;;5006450;28;20223;-72
2023/07/22 10:18:17;;;;;;;5.03;2.55;;;24.60;99.90;;;;;;5008471;28;20209;-74
2023/07/22 10:20:44;;;;;;;4.75;2.88;;;24.90;99.90;;;;;;5009906;28;20197;-74
2023/07/22 10:23:12;;;;;;;5.38;2.95;;;24.90;99.90;;;;;;5007728;28;20200;-73
2023/07/22 10:25:39;;;;;;;4.82;3.33;;;25.20;99.90;;;;;;5007369;28;20635;-73
2023/07/22 10:28:06;;;;;;;7.22;3.25;;;25.40;99.90;;;;;;5008849;28;20209;-74
2023/07/22 10:30:32;;;;;;;4.22;2.60;;;24.90;99.80;;;;;;5006859;28;20214;-72
2023/07/22 10:32:58;;;;;;;4.88;2.83;;;24.50;99.90;;;;;;5002837;28;20654;-72
2023/07/22 10:35:30;;;;;;;6.50;3.53;;;24.30;99.90;;;;;;5015581;28;20315;-73
2023/07/22 10:38:06;;;;;;;5.07;2.88;;;24.30;99.90;;;;;;5012641;28;20185;-73
2023/07/22 10:40:32;;;;;;;3.45;2.88;;;24.40;99.90;;;;;;5003826;28;20204;-70
2023/07/22 10:43:05;;;;;;;5.05;3.13;;;24.20;99.90;;;;;;5012066;28;20205;-71
2023/07/22 10:45:41;;;;;;;4.65;2.92;;;24.00;99.90;;;;;;5009243;28;20310;-72
2023/07/22 10:48:09;;;;;;;5.75;3.00;;;23.70;99.90;;;;;;5010213;28;20314;-72
2023/07/22 10:50:49;;;;;;;3.15;2.70;;;23.60;99.90;;;;;;5001994;28;20209;-73
2023/07/22 10:53:24;;;;;;;5.70;3.20;;;22.80;99.90;;;;;;5021914;28;20213;-72
2023/07/22 10:56:17;;;;;;;4.55;3.25;;;23.00;99.90;;;;;;5009111;28;20186;-76
2023/07/22 10:58:48;;;;;;;3.60;3.30;;;23.40;99.90;;;;;;5011266;28;20204;-75
2023/07/22 11:01:24;;;;;;;3.33;2.95;;;23.70;99.90;;;;;;5012242;28;20391;-77
2023/07/22 11:04:10;;;;;;;5.32;3.47;;;23.70;99.90;;;;;;5018196;28;20857;-74
2023/07/22 11:06:37;;;;;;;5.00;3.40;;;23.50;99.90;;;;;;5004863;28;20211;-75
2023/07/22 11:09:03;;;;;;;4.88;2.95;;;23.30;99.90;;;;;;5012442;28;20228;-75
2023/07/22 11:11:44;;;;;;;7.10;4.00;;;23.30;99.90;;;;;;5015902;28;20217;-78
2023/07/22 11:14:18;;;;;;;4.78;3.80;;;23.20;99.90;;;;;;5015014;28;20288;-78
2023/07/22 11:16:45;;;;;;;6.40;3.80;;;23.10;99.90;;;;;;5019398;28;21217;-79
2023/07/22 11:19:13;;;;;;;4.60;3.63;;;23.20;99.90;;;;;;5008748;28;20209;-78
2023/07/22 11:21:38;;;;;;;4.95;3.33;;;23.60;99.90;;;;;;5016420;28;20217;-78
2023/07/22 11:24:06;;;;;;;4.97;3.30;;;24.10;99.90;;;;;;5015347;28;20306;-77
2023/07/22 11:26:32;;;;;;;5.82;4.10;;;24.20;99.90;;;;;;5012889;28;20239;-78
2023/07/22 11:29:00;;;;;;;6.88;3.97;;;24.40;99.90;;;;;;5018191;28;20181;-78
2023/07/22 11:31:33;;;;;;;5.90;4.10;;;24.70;99.90;;;;;;5017423;28;20176;-79
2023/07/22 11:33:59;;;;;;;4.05;3.50;;;24.90;99.90;;;;;;5021489;28;20710;-79
2023/07/22 11:36:28;;;;;;;5.25;3.40;;;24.90;99.90;;;;;;5013200;28;20259;-80
2023/07/22 11:39:00;;;;;;;6.65;4.65;;;24.70;99.90;;;;;;5009731;28;20340;-77
2023/07/22 11:41:26;;;;;;;4.95;3.67;;;24.80;99.90;;;;;;5010911;28;20217;-79
2023/07/22 11:43:52;;;;;;;3.90;3.35;;;24.60;99.90;;;;;;5009414;28;20227;-76
2023/07/22 11:46:17;;;;;;;6.32;3.78;;;24.80;99.90;;;;;;5008118;28;20819;-76
2023/07/22 11:48:51;;;;;;;4.18;3.58;;;25.10;99.90;;;;;;5011974;28;20224;-77
2023/07/22 11:51:24;;;;;;;3.97;3.45;;;25.10;99.20;;;;;;5016452;28;20209;-78
2023/07/22 11:53:51;;;;;;;7.18;4.32;;;25.10;98.90;;;;;;5010315;28;20209;-76
2023/07/22 11:56:28;;;;;;;6.35;3.33;;;25.20;98.10;;;;;;5018678;28;20231;-75
2023/07/22 11:58:56;;;;;;;5.25;4.20;;;25.30;98.50;;;;;;5011330;28;20181;-75
2023/07/22 12:01:23;;;;;;;5.50;3.75;;;25.30;98.30;;;;;;5008157;28;20638;-75
2023/07/22 12:03:49;;;;;;;5.43;3.75;;;25.00;98.00;;;;;;5011886;28;20209;-75
2023/07/22 12:06:15;;;;;;;4.60;4.07;;;24.90;98.50;;;;;;5014932;28;20216;-75
2023/07/22 12:08:48;;;;;;;6.43;3.75;;;24.60;98.70;;;;;;5019783;28;20205;-75
2023/07/22 12:11:25;;;;;;;3.70;3.20;;;24.60;99.40;;;;;;5011440;28;20647;-75
2023/07/22 12:14:10;;;;;;;4.97;3.88;;;24.70;98.60;;;;;;5016245;28;20196;-75
2023/07/22 12:16:37;;;;;;;5.13;3.75;;;25.00;97.70;;;;;;5021177;28;20220;-75
2023/07/22 12:19:03;;;;;;;5.50;4.10;;;25.00;97.70;;;;;;5020796;28;20616;-75
2023/07/22 12:21:29;;;;;;;5.10;4.03;;;25.10;97.70;;;;;;5011540;28;20215;-74
2023/07/22 12:23:55;;;;;;;5.53;3.50;;;24.90;97.80;;;;;;5015449;28;20230;-74
2023/07/22 12:26:21;;;;;;;4.68;3.83;;;25.00;98.10;;;;;;5008320;28;20236;-75
2023/07/22 12:28:46;;;;;;;5.07;3.58;;;25.00;98.20;;;;;;5016415;28;20181;-73
2023/07/22 12:31:12;;;;;;;5.38;3.75;;;24.90;98.40;;;;;;5012103;28;20228;-76
2023/07/22 12:33:38;;;;;;;5.15;3.97;;;24.90;98.40;;;;;;5015849;28;20215;-76
2023/07/22 12:36:04;;;;;;;4.72;3.80;;;24.80;98.90;;;;;;5011455;28;20205;-73
2023/07/22 12:38:30;;;;;;;4.97;4.30;;;24.70;99.00;;;;;;5014352;28;20690;-74
2023/07/22 12:40:56;;;;;;;5.78;4.15;;;24.70;99.40;;;;;;5011675;28;20204;-74
2023/07/22 12:43:22;;;;;;;6.38;4.07;;;24.70;99.50;;;;;;5018299;28;20183;-73
2023/07/22 12:45:47;;;;;;;5.85;4.68;;;24.70;99.50;;;;;;5012395;28;20660;-74